Time;durP1;ratioP1;P1;durP2;ratioP2;P2;SDS_P1;SDS_P2;PMS_P1;PMS_P2;Temp;Humidity;BMP_temperature;BMP_pressure;BME280_temperature;BME280_humidity;BME280_pressure;Samples;Min_cycle;Max_cycle;Signal;HPM_P1;HPM_P2
2021/08/02 00:00:15;;;;;;;1.70;0.47;;;12.50;99.90;;;;;;4914967;29;20040;-81
2021/08/02 00:03:07;;;;;;;2.40;0.45;;;12.50;99.90;;;;;;4915652;29;20433;-81
2021/08/02 00:05:35;;;;;;;1.92;0.40;;;12.50;99.90;;;;;;4931108;29;20503;-80
2021/08/02 00:08:02;;;;;;;1.40;0.40;;;12.50;99.90;;;;;;4948338;29;20066;-80
2021/08/02 00:10:34;;;;;;;2.55;0.60;;;12.50;99.90;;;;;;4915300;29;20400;-81
2021/08/02 00:13:14;;;;;;;2.50;0.40;;;12.50;99.90;;;;;;4931383;29;20040;-80
2021/08/02 00:15:41;;;;;;;1.05;0.30;;;12.50;99.90;;;;;;4918680;29;20487;-81
2021/08/02 00:18:08;;;;;;;1.73;0.30;;;12.50;99.90;;;;;;4949732;29;20047;-80
2021/08/02 00:20:34;;;;;;;1.85;0.40;;;12.60;99.90;;;;;;4950038;29;20035;-80
2021/08/02 00:23:04;;;;;;;1.42;0.40;;;12.70;99.90;;;;;;4966227;29;20039;-80
2021/08/02 00:25:30;;;;;;;1.42;0.40;;;12.60;99.90;;;;;;4950058;29;20031;-80
2021/08/02 00:27:56;;;;;;;3.05;0.40;;;12.60;99.90;;;;;;4949495;29;20032;-78
2021/08/02 00:30:25;;;;;;;1.38;0.40;;;12.70;99.90;;;;;;4949494;29;20058;-80
2021/08/02 00:32:52;;;;;;;3.13;0.40;;;12.70;99.90;;;;;;4949619;29;20036;-79
2021/08/02 00:35:19;;;;;;;2.38;0.52;;;12.70;99.90;;;;;;4949835;29;20046;-80
2021/08/02 00:38:03;;;;;;;4.53;1.52;;;12.80;99.90;;;;;;4950424;29;20044;-81
2021/08/02 00:40:46;;;;;;;2.42;0.55;;;12.80;99.90;;;;;;4947941;29;20063;-81
2021/08/02 00:43:37;;;;;;;1.90;0.40;;;12.80;99.90;;;;;;4930895;29;20042;-81
2021/08/02 00:46:03;;;;;;;3.30;0.40;;;12.80;99.90;;;;;;4947778;29;20028;-80
2021/08/02 00:48:37;;;;;;;1.45;0.40;;;12.80;99.90;;;;;;4914780;29;20052;-82
2021/08/02 00:51:05;;;;;;;2.85;0.50;;;12.90;99.90;;;;;;4930738;29;20039;-80
2021/08/02 00:53:34;;;;;;;2.15;0.50;;;12.80;99.90;;;;;;4930566;29;20120;-81
2021/08/02 00:56:03;;;;;;;2.88;0.38;;;12.90;99.90;;;;;;4914862;29;20034;-81
2021/08/02 00:58:31;;;;;;;2.13;0.40;;;12.80;99.90;;;;;;4947812;29;20044;-81
2021/08/02 01:01:18;;;;;;;2.85;0.60;;;12.90;99.90;;;;;;4930594;29;20024;-80
2021/08/02 01:03:45;;;;;;;2.88;0.40;;;12.90;99.90;;;;;;4836253;29;20046;-80
2021/08/02 01:06:15;;;;;;;2.90;0.50;;;12.90;99.90;;;;;;4851843;29;20121;-80
2021/08/02 01:08:47;;;;;;;3.47;0.55;;;12.90;99.90;;;;;;4851869;29;20042;-81
2021/08/02 01:11:16;;;;;;;2.80;0.52;;;13.00;99.90;;;;;;4851784;29;20531;-80
2021/08/02 01:13:43;;;;;;;2.10;0.50;;;12.90;99.90;;;;;;4851863;29;20060;-81
2021/08/02 01:16:10;;;;;;;2.90;0.50;;;13.00;99.90;;;;;;4841414;29;20038;-81
2021/08/02 01:18:39;;;;;;;1.40;0.40;;;13.00;99.90;;;;;;4830416;29;20039;-81
2021/08/02 01:21:11;;;;;;;2.45;0.45;;;13.10;99.90;;;;;;4830378;29;20042;-80
2021/08/02 01:23:38;;;;;;;3.10;0.50;;;13.10;99.90;;;;;;4815293;29;20075;-80
2021/08/02 01:26:04;;;;;;;3.45;0.40;;;13.10;99.90;;;;;;4815146;29;20035;-81
2021/08/02 01:28:34;;;;;;;2.60;0.40;;;13.10;99.90;;;;;;4814635;29;20047;-81
2021/08/02 01:31:03;;;;;;;1.42;0.50;;;13.10;99.90;;;;;;4814784;29;20077;-81
2021/08/02 01:33:36;;;;;;;3.05;0.60;;;13.10;99.90;;;;;;4814206;29;20042;-81
2021/08/02 01:36:12;;;;;;;1.55;0.50;;;13.10;99.90;;;;;;4820915;29;20064;-80
2021/08/02 01:38:44;;;;;;;3.17;0.68;;;13.10;99.90;;;;;;4837265;29;20030;-80
2021/08/02 01:41:14;;;;;;;2.22;0.82;;;13.10;99.90;;;;;;4894679;29;20036;-81
2021/08/02 01:43:40;;;;;;;2.70;0.70;;;13.10;99.90;;;;;;4933820;29;20071;-78
2021/08/02 01:46:44;;;;;;;3.25;0.70;;;13.10;99.90;;;;;;4933647;29;20054;-81
2021/08/02 01:49:29;;;;;;;1.63;0.50;;;13.10;99.90;;;;;;4872720;29;20060;-81
2021/08/02 01:51:57;;;;;;;2.60;0.75;;;13.10;99.90;;;;;;4873167;29;20045;-81
2021/08/02 01:54:42;;;;;;;1.38;0.60;;;13.10;99.90;;;;;;4873025;29;20112;-80
2021/08/02 01:57:34;;;;;;;3.08;0.60;;;13.10;99.90;;;;;;4857581;29;20068;-80
2021/08/02 02:00:20;;;;;;;2.03;0.50;;;13.20;99.90;;;;;;4872625;29;20171;-81
2021/08/02 02:03:02;;;;;;;3.63;0.90;;;13.20;99.90;;;;;;4852594;29;20044;-81
2021/08/02 02:05:36;;;;;;;2.80;0.60;;;13.20;99.90;;;;;;4858186;29;20033;-80
2021/08/02 02:08:31;;;;;;;4.35;0.70;;;13.20;99.90;;;;;;4872954;29;20042;-81
2021/08/02 02:11:02;;;;;;;1.52;0.50;;;13.20;99.90;;;;;;4872761;29;20045;-78
2021/08/02 02:13:43;;;;;;;2.58;0.70;;;13.10;99.90;;;;;;4872700;29;20042;-81
2021/08/02 02:16:10;;;;;;;4.28;0.80;;;13.20;99.90;;;;;;4872527;29;20042;-81
2021/08/02 02:18:40;;;;;;;2.63;0.60;;;13.20;99.90;;;;;;4857427;29;20041;-81
2021/08/02 02:21:08;;;;;;;6.57;0.80;;;13.20;99.90;;;;;;4857190;29;20109;-81
2021/08/02 02:23:36;;;;;;;4.57;0.85;;;13.20;99.90;;;;;;4857341;29;20037;-80
2021/08/02 02:26:04;;;;;;;3.28;0.75;;;13.20;99.90;;;;;;4894300;29;20032;-81
2021/08/02 02:28:31;;;;;;;3.33;0.80;;;13.20;99.90;;;;;;4952092;29;20035;-81
2021/08/02 02:31:08;;;;;;;4.43;0.63;;;13.20;99.90;;;;;;4951926;29;20031;-79
2021/08/02 02:33:35;;;;;;;2.03;0.65;;;13.30;99.90;;;;;;4967984;29;20480;-81
2021/08/02 02:36:03;;;;;;;3.10;0.80;;;13.20;99.90;;;;;;4967564;29;20067;-81
2021/08/02 02:38:30;;;;;;;3.13;0.80;;;13.30;99.90;;;;;;4936098;29;20376;-81
2021/08/02 02:40:56;;;;;;;3.45;0.70;;;13.30;99.90;;;;;;4935936;29;20035;-81
2021/08/02 02:43:24;;;;;;;3.25;0.80;;;13.30;99.90;;;;;;4951780;29;20041;-81
2021/08/02 02:45:51;;;;;;;2.47;0.75;;;13.30;99.90;;;;;;4935938;29;20023;-81
2021/08/02 02:48:18;;;;;;;3.75;0.73;;;13.30;99.90;;;;;;4932573;29;20039;-82
2021/08/02 02:50:48;;;;;;;3.75;0.70;;;13.30;99.90;;;;;;4920282;29;20040;-80
2021/08/02 02:53:15;;;;;;;3.30;0.60;;;13.30;99.90;;;;;;4916086;29;20055;-81
2021/08/02 02:55:46;;;;;;;2.10;0.80;;;13.30;99.90;;;;;;4949754;29;20040;-80
2021/08/02 02:58:13;;;;;;;2.58;0.60;;;13.30;99.90;;;;;;4916758;29;20039;-81
2021/08/02 03:00:39;;;;;;;2.25;0.60;;;13.40;99.90;;;;;;4932477;29;20027;-80
2021/08/02 03:03:08;;;;;;;2.05;0.60;;;13.40;99.90;;;;;;4932282;29;20036;-81
2021/08/02 03:05:37;;;;;;;1.65;0.75;;;13.40;99.90;;;;;;4948401;29;20070;-80
2021/08/02 03:08:06;;;;;;;3.05;0.75;;;13.40;99.90;;;;;;4932168;29;20028;-81
2021/08/02 03:10:33;;;;;;;1.20;0.60;;;13.30;99.90;;;;;;4932581;29;20023;-81
2021/08/02 03:12:59;;;;;;;1.80;0.63;;;13.30;99.90;;;;;;4949265;29;20031;-80
2021/08/02 03:15:26;;;;;;;4.72;0.95;;;13.30;99.90;;;;;;4917888;29;20043;-80
2021/08/02 03:17:51;;;;;;;2.65;0.75;;;13.30;99.90;;;;;;4968319;29;20126;-81
2021/08/02 03:20:18;;;;;;;3.65;0.75;;;13.30;99.90;;;;;;4968549;29;20090;-80
2021/08/02 03:23:01;;;;;;;3.33;1.23;;;13.40;99.90;;;;;;4969667;29;20031;-81
2021/08/02 03:25:36;;;;;;;3.25;0.75;;;13.40;99.90;;;;;;4951844;29;20031;-81
2021/08/02 03:28:04;;;;;;;2.25;0.80;;;13.30;99.90;;;;;;4951035;29;20074;-80
2021/08/02 03:30:34;;;;;;;1.83;0.70;;;13.30;99.90;;;;;;4967169;29;20031;-80
2021/08/02 03:33:00;;;;;;;3.60;0.77;;;13.30;99.90;;;;;;4966878;29;20035;-81
2021/08/02 03:35:27;;;;;;;3.35;0.80;;;13.30;99.90;;;;;;4968138;29;20291;-81
2021/08/02 03:37:54;;;;;;;2.30;0.93;;;13.30;99.90;;;;;;4950517;29;20039;-81
2021/08/02 03:40:21;;;;;;;4.40;0.90;;;13.30;99.90;;;;;;4940352;29;20027;-81
2021/08/02 03:42:47;;;;;;;4.05;0.93;;;13.30;99.90;;;;;;4948898;29;20036;-81
2021/08/02 03:45:15;;;;;;;4.38;1.10;;;13.30;99.90;;;;;;4931773;29;20111;-80
2021/08/02 03:47:42;;;;;;;3.22;1.02;;;13.30;99.90;;;;;;4915527;29;20046;-81
2021/08/02 03:50:09;;;;;;;6.20;1.20;;;13.40;99.90;;;;;;4931550;29;20031;-80
2021/08/02 03:52:35;;;;;;;5.05;1.02;;;13.40;99.90;;;;;;4915472;29;20046;-80
2021/08/02 03:55:02;;;;;;;3.65;1.10;;;13.40;99.90;;;;;;4915701;29;20035;-81
2021/08/02 03:57:30;;;;;;;4.43;1.13;;;13.40;99.90;;;;;;4931266;29;20051;-81
2021/08/02 03:59:56;;;;;;;5.80;0.93;;;13.40;99.90;;;;;;4915608;29;20043;-81
2021/08/02 04:02:22;;;;;;;5.97;0.95;;;13.40;99.90;;;;;;4948164;29;20038;-81
2021/08/02 04:04:47;;;;;;;2.38;0.82;;;13.40;99.90;;;;;;4931217;29;20048;-81
2021/08/02 04:07:13;;;;;;;8.73;1.08;;;13.40;99.90;;;;;;4915372;29;20041;-81
2021/08/02 04:09:39;;;;;;;4.03;1.23;;;13.50;99.90;;;;;;4931345;29;20036;-80
2021/08/02 04:12:05;;;;;;;3.22;1.40;;;13.50;99.90;;;;;;4931172;29;20027;-81
2021/08/02 04:14:30;;;;;;;3.70;1.00;;;13.50;99.90;;;;;;4931117;29;20046;-81
2021/08/02 04:16:56;;;;;;;3.97;1.40;;;13.50;99.90;;;;;;4960674;29;20031;-81
2021/08/02 04:19:22;;;;;;;3.38;1.45;;;13.50;99.90;;;;;;4966824;29;20039;-81
2021/08/02 04:21:48;;;;;;;4.65;1.40;;;13.50;99.90;;;;;;4965558;29;20037;-81
2021/08/02 04:24:13;;;;;;;2.95;0.80;;;13.50;99.90;;;;;;4965257;29;20035;-81
2021/08/02 04:26:39;;;;;;;3.00;1.20;;;13.50;99.90;;;;;;4965492;29;20122;-81
2021/08/02 04:29:04;;;;;;;7.97;1.35;;;13.50;99.90;;;;;;4965116;29;20475;-80
2021/08/02 04:31:31;;;;;;;2.28;0.80;;;13.50;99.90;;;;;;4946976;29;20038;-82
2021/08/02 04:33:57;;;;;;;4.28;1.40;;;13.60;99.90;;;;;;4946148;29;20031;-79
2021/08/02 04:36:24;;;;;;;5.13;1.63;;;13.60;99.90;;;;;;4951620;29;20118;-79
2021/08/02 04:38:50;;;;;;;4.18;1.15;;;13.60;99.90;;;;;;4966402;29;20052;-79
2021/08/02 04:41:16;;;;;;;5.10;1.13;;;13.60;99.90;;;;;;4966404;29;20500;-79
2021/08/02 04:43:42;;;;;;;5.93;1.40;;;13.60;99.90;;;;;;4966295;29;20035;-79
2021/08/02 04:46:08;;;;;;;4.57;1.40;;;13.60;99.90;;;;;;4966462;29;20027;-79
2021/08/02 04:48:34;;;;;;;5.45;1.60;;;13.60;99.90;;;;;;4958827;29;20065;-79
2021/08/02 04:50:59;;;;;;;5.22;1.58;;;13.60;99.90;;;;;;4927230;29;20083;-79
2021/08/02 04:53:25;;;;;;;6.07;1.50;;;13.60;99.90;;;;;;4944871;29;20433;-79
2021/08/02 04:55:51;;;;;;;6.97;0.90;;;13.60;99.90;;;;;;4929968;29;20031;-79
2021/08/02 04:58:16;;;;;;;7.18;1.23;;;13.60;99.90;;;;;;4929801;29;20040;-79
2021/08/02 05:00:42;;;;;;;3.47;0.70;;;13.70;99.90;;;;;;4947025;29;20024;-79
2021/08/02 05:03:07;;;;;;;3.22;1.08;;;13.70;99.90;;;;;;4946847;29;20087;-79
2021/08/02 05:05:33;;;;;;;3.10;1.33;;;13.80;99.90;;;;;;4914306;29;20047;-79
2021/08/02 05:07:59;;;;;;;4.93;1.55;;;13.80;99.90;;;;;;4947076;29;20040;-79
2021/08/02 05:10:24;;;;;;;5.28;1.10;;;13.90;99.90;;;;;;4946981;29;20032;-79
2021/08/02 05:12:51;;;;;;;3.85;1.67;;;13.90;99.90;;;;;;4945553;29;20055;-79
2021/08/02 05:15:17;;;;;;;3.88;1.00;;;13.80;99.90;;;;;;4948237;29;20042;-79
2021/08/02 05:17:42;;;;;;;3.60;0.90;;;13.90;99.90;;;;;;4936590;29;20118;-79
2021/08/02 05:20:08;;;;;;;3.38;1.10;;;13.90;99.90;;;;;;4958634;29;20395;-79
2021/08/02 05:22:34;;;;;;;4.63;1.05;;;14.00;99.90;;;;;;4933390;29;20039;-79
2021/08/02 05:25:00;;;;;;;4.80;1.40;;;14.00;99.90;;;;;;4933262;29;20250;-79
2021/08/02 05:27:26;;;;;;;2.88;1.30;;;14.10;99.90;;;;;;4917561;29;20046;-79
2021/08/02 05:29:51;;;;;;;3.92;0.93;;;14.10;99.90;;;;;;4949199;29;20032;-79
2021/08/02 05:32:17;;;;;;;2.50;0.75;;;14.20;99.90;;;;;;4949151;29;20027;-79
2021/08/02 05:34:44;;;;;;;2.05;0.90;;;14.20;99.90;;;;;;4932957;29;20476;-79
2021/08/02 05:37:11;;;;;;;7.60;1.25;;;14.20;99.90;;;;;;4960840;29;20054;-80
2021/08/02 05:39:37;;;;;;;2.85;0.90;;;14.20;99.90;;;;;;4969627;29;20035;-79
2021/08/02 05:42:04;;;;;;;2.67;0.95;;;14.20;99.90;;;;;;4952237;29;20050;-79
2021/08/02 05:44:30;;;;;;;1.75;0.63;;;14.20;99.90;;;;;;4951958;29;20082;-79
2021/08/02 05:46:56;;;;;;;1.98;0.80;;;14.30;99.90;;;;;;4936211;29;20043;-80
2021/08/02 05:49:47;;;;;;;2.90;0.77;;;14.30;99.90;;;;;;4970336;29;20039;-79
2021/08/02 05:52:12;;;;;;;3.03;1.13;;;14.30;99.90;;;;;;4893631;29;20045;-80
2021/08/02 05:54:38;;;;;;;4.70;0.70;;;14.40;99.90;;;;;;4911201;29;20036;-80
2021/08/02 05:57:04;;;;;;;3.60;0.93;;;14.40;99.90;;;;;;4912185;29;20043;-79
2021/08/02 05:59:29;;;;;;;2.10;0.70;;;14.50;99.90;;;;;;4895002;29;20108;-80
2021/08/02 06:01:58;;;;;;;2.78;0.68;;;14.50;99.90;;;;;;4912003;29;20112;-80
2021/08/02 06:04:25;;;;;;;3.00;0.60;;;14.60;99.90;;;;;;4895195;29;20107;-80
2021/08/02 06:06:53;;;;;;;6.78;1.38;;;14.60;99.90;;;;;;4895003;29;20064;-81
2021/08/02 06:09:22;;;;;;;4.90;0.70;;;14.60;99.90;;;;;;4911510;29;20043;-80
2021/08/02 06:11:49;;;;;;;3.63;0.80;;;14.60;99.90;;;;;;4911763;29;20028;-80
2021/08/02 06:14:14;;;;;;;3.03;0.82;;;14.70;99.90;;;;;;4894661;29;20071;-80
2021/08/02 06:16:40;;;;;;;3.95;0.70;;;14.70;99.90;;;;;;4922954;29;20040;-80
2021/08/02 06:19:06;;;;;;;4.07;0.70;;;14.80;99.90;;;;;;4930491;29;20063;-80
2021/08/02 06:21:31;;;;;;;3.95;0.60;;;15.00;99.90;;;;;;4898156;29;20055;-80
2021/08/02 06:23:57;;;;;;;2.13;0.57;;;15.00;99.90;;;;;;4913266;29;20044;-80
2021/08/02 06:26:23;;;;;;;3.45;0.70;;;15.10;99.90;;;;;;4929243;29;20040;-80
2021/08/02 06:28:50;;;;;;;1.88;0.70;;;15.20;99.90;;;;;;4913514;29;20061;-80
2021/08/02 06:31:18;;;;;;;4.68;0.73;;;15.50;99.90;;;;;;4930516;29;20070;-81
2021/08/02 06:33:44;;;;;;;4.32;0.68;;;15.40;99.90;;;;;;4930302;29;20028;-81
2021/08/02 06:36:10;;;;;;;6.35;0.60;;;15.20;99.90;;;;;;4910470;29;20029;-80
2021/08/02 06:38:36;;;;;;;4.10;0.50;;;15.10;99.90;;;;;;4911466;29;20059;-81
2021/08/02 06:41:03;;;;;;;4.90;0.70;;;15.10;99.90;;;;;;4894338;29;20039;-80
2021/08/02 06:43:29;;;;;;;2.03;0.50;;;15.60;99.90;;;;;;4894252;29;20434;-80
2021/08/02 06:45:55;;;;;;;3.45;0.47;;;16.10;99.90;;;;;;4894291;29;20028;-80
2021/08/02 06:48:21;;;;;;;3.50;0.60;;;16.30;99.90;;;;;;4893993;29;20049;-80
2021/08/02 06:50:47;;;;;;;3.47;0.50;;;16.20;99.90;;;;;;4893696;29;20056;-80
2021/08/02 06:53:13;;;;;;;4.97;0.70;;;16.10;99.90;;;;;;4910956;29;20037;-80
2021/08/02 06:55:38;;;;;;;3.75;0.70;;;16.30;99.90;;;;;;4910824;29;20032;-81
2021/08/02 06:58:04;;;;;;;1.73;0.40;;;16.20;99.90;;;;;;4910860;29;20044;-81
2021/08/02 07:00:30;;;;;;;2.42;0.40;;;16.20;99.90;;;;;;4909496;29;20036;-80
2021/08/02 07:02:58;;;;;;;4.97;0.60;;;16.20;99.90;;;;;;4909297;29;20104;-80
2021/08/02 07:05:24;;;;;;;2.97;0.40;;;16.30;99.90;;;;;;4893748;29;20047;-81
2021/08/02 07:07:50;;;;;;;1.25;0.40;;;16.40;99.90;;;;;;4893008;29;20051;-81
2021/08/02 07:10:15;;;;;;;2.05;0.50;;;16.70;99.90;;;;;;4893748;29;20036;-78
2021/08/02 07:12:41;;;;;;;2.47;0.50;;;16.60;99.90;;;;;;4909367;29;20060;-80
2021/08/02 07:15:07;;;;;;;2.13;0.40;;;16.50;99.90;;;;;;4909351;29;20079;-81
2021/08/02 07:17:33;;;;;;;3.58;0.60;;;16.60;99.90;;;;;;4928544;29;20515;-80
2021/08/02 07:19:59;;;;;;;1.20;0.28;;;17.00;99.90;;;;;;4912150;29;20036;-80
2021/08/02 07:22:24;;;;;;;3.70;0.32;;;16.80;99.90;;;;;;4912383;29;20078;-81
2021/08/02 07:24:50;;;;;;;2.92;0.40;;;16.70;99.90;;;;;;4912200;29;20039;-81
2021/08/02 07:27:16;;;;;;;2.63;0.30;;;16.80;99.90;;;;;;4929132;29;20036;-80
2021/08/02 07:29:41;;;;;;;2.78;0.30;;;16.90;99.90;;;;;;4929129;29;20043;-81
2021/08/02 07:32:07;;;;;;;2.45;0.30;;;17.10;99.90;;;;;;4927939;29;20032;-78
2021/08/02 07:34:33;;;;;;;1.02;0.20;;;17.00;99.90;;;;;;4927147;29;20067;-79
2021/08/02 07:36:59;;;;;;;2.45;0.40;;;16.90;99.90;;;;;;4919781;29;20073;-78
2021/08/02 07:39:24;;;;;;;2.38;0.30;;;17.10;99.90;;;;;;4893019;29;20033;-78
2021/08/02 07:41:50;;;;;;;2.08;0.30;;;17.10;99.90;;;;;;4910015;29;20116;-78
2021/08/02 07:44:15;;;;;;;2.35;0.30;;;17.20;99.90;;;;;;4893210;29;20285;-78
2021/08/02 07:50:28;;;;;;;2.03;0.30;;;17.20;99.90;;;;;;4833461;29;20053;-81
2021/08/02 07:52:54;;;;;;;1.13;0.20;;;17.60;99.90;;;;;;4833482;29;20038;-80
2021/08/02 07:55:20;;;;;;;5.80;0.35;;;17.90;99.90;;;;;;4833496;29;20085;-78
2021/08/02 07:57:45;;;;;;;2.08;0.30;;;18.10;99.90;;;;;;4818319;29;20046;-77
2021/08/02 08:00:14;;;;;;;1.65;0.30;;;17.70;99.90;;;;;;4833717;29;20046;-78
2021/08/02 08:02:39;;;;;;;4.63;0.32;;;17.10;99.90;;;;;;4818007;29;20139;-78
2021/08/02 08:05:05;;;;;;;1.10;0.30;;;16.90;99.90;;;;;;4833659;29;20034;-78
2021/08/02 08:07:44;;;;;;;1.88;0.20;;;16.70;99.90;;;;;;4833395;29;20095;-79
2021/08/02 08:10:12;;;;;;;1.40;0.20;;;16.40;99.90;;;;;;4833641;29;20155;-79
2021/08/02 08:12:38;;;;;;;5.00;0.20;;;16.50;99.90;;;;;;4831835;29;20539;-78
2021/08/02 08:15:04;;;;;;;2.50;0.65;;;17.10;99.90;;;;;;4815041;29;20563;-78
2021/08/02 08:17:30;;;;;;;1.83;0.30;;;17.50;99.90;;;;;;4848918;29;20134;-77
2021/08/02 08:19:55;;;;;;;0.77;0.17;;;17.90;99.90;;;;;;4851413;29;20038;-77
2021/08/02 08:22:21;;;;;;;4.15;0.30;;;18.30;99.90;;;;;;4851282;29;20102;-79
2021/08/02 08:24:49;;;;;;;3.17;0.30;;;18.00;99.90;;;;;;4836251;29;20447;-80
2021/08/02 08:27:15;;;;;;;4.03;0.20;;;18.40;99.90;;;;;;4896021;29;20051;-78
2021/08/02 08:29:41;;;;;;;3.70;0.20;;;18.30;99.90;;;;;;4928428;29;20068;-78
2021/08/02 08:32:07;;;;;;;1.90;0.30;;;18.40;99.90;;;;;;4911241;29;20025;-77
2021/08/02 08:34:33;;;;;;;0.63;0.20;;;18.70;99.90;;;;;;4927059;29;20036;-78
2021/08/02 08:36:58;;;;;;;0.88;0.30;;;19.10;99.90;;;;;;4919257;29;20041;-80
2021/08/02 08:39:24;;;;;;;1.38;0.15;;;18.60;99.90;;;;;;4909503;29;20025;-78
2021/08/02 08:41:51;;;;;;;1.67;0.20;;;17.80;99.90;;;;;;4908983;29;20562;-78
2021/08/02 08:44:19;;;;;;;0.80;0.20;;;17.60;99.90;;;;;;4909312;29;20033;-77
2021/08/02 08:46:45;;;;;;;1.70;0.20;;;18.10;99.90;;;;;;4909194;29;20092;-80
2021/08/02 08:49:10;;;;;;;0.95;0.20;;;18.20;99.90;;;;;;4892520;29;20061;-80
2021/08/02 08:51:38;;;;;;;1.02;0.10;;;18.60;99.90;;;;;;4912758;29;20056;-78
2021/08/02 08:54:05;;;;;;;1.55;0.15;;;18.60;99.90;;;;;;4896070;29;20039;-78
2021/08/02 08:56:31;;;;;;;1.30;0.20;;;18.30;99.90;;;;;;4913006;29;20041;-80
2021/08/02 08:58:57;;;;;;;2.95;0.30;;;18.10;99.90;;;;;;4913165;29;20041;-78
2021/08/02 09:01:28;;;;;;;2.58;0.20;;;18.60;99.90;;;;;;4896190;29;20037;-80
2021/08/02 09:03:54;;;;;;;1.02;0.13;;;19.20;99.90;;;;;;4911575;29;20044;-78
2021/08/02 09:06:20;;;;;;;2.60;0.20;;;19.80;99.90;;;;;;4913022;29;20037;-78
2021/08/02 09:08:47;;;;;;;0.75;0.20;;;20.10;99.90;;;;;;4880319;29;20042;-78
2021/08/02 09:11:21;;;;;;;1.77;0.20;;;19.10;99.90;;;;;;4911068;29;20033;-81
2021/08/02 09:13:47;;;;;;;0.50;0.10;;;19.30;99.90;;;;;;4895663;29;20040;-79
2021/08/02 09:16:25;;;;;;;4.00;0.20;;;19.10;99.90;;;;;;4920452;29;20032;-77
2021/08/02 09:19:03;;;;;;;0.52;0.10;;;18.80;99.90;;;;;;4899001;29;20087;-76
2021/08/02 09:21:43;;;;;;;1.20;0.20;;;18.40;99.90;;;;;;4930609;29;20039;-76
2021/08/02 09:24:09;;;;;;;1.15;0.20;;;17.70;99.90;;;;;;4914165;29;20046;-77
2021/08/02 09:26:37;;;;;;;0.98;0.17;;;17.80;99.90;;;;;;4897391;29;20032;-77
2021/08/02 09:29:04;;;;;;;1.63;0.20;;;17.70;99.90;;;;;;4929159;29;20056;-78
2021/08/02 09:31:45;;;;;;;1.77;0.13;;;17.70;99.90;;;;;;4897592;29;20036;-77
2021/08/02 09:34:11;;;;;;;1.08;0.20;;;17.70;99.90;;;;;;4914138;29;20036;-77
2021/08/02 09:36:42;;;;;;;2.17;0.20;;;17.80;99.90;;;;;;4924778;29;20050;-77
2021/08/02 09:39:14;;;;;;;1.63;0.20;;;17.70;99.90;;;;;;4911178;29;20044;-77
2021/08/02 09:41:44;;;;;;;1.50;0.20;;;17.90;99.90;;;;;;4912351;29;20370;-77
2021/08/02 09:44:20;;;;;;;3.55;0.70;;;17.90;99.90;;;;;;4912198;29;20055;-76
2021/08/02 09:49:56;;;;;;;;;;;18.20;99.90;;;;;;4911554;29;20077;-77
2021/08/02 09:52:22;;;;;;;0.80;0.20;;;18.20;99.90;;;;;;4911291;29;19911;-79
2021/08/02 09:54:58;;;;;;;2.20;0.20;;;18.50;99.90;;;;;;4911201;29;20036;-77
2021/08/02 09:57:24;;;;;;;0.93;0.30;;;18.40;99.90;;;;;;4895342;29;20051;-77
2021/08/02 09:59:50;;;;;;;1.15;0.20;;;18.20;99.90;;;;;;4895523;29;20037;-77
2021/08/02 10:02:16;;;;;;;2.08;0.20;;;18.10;99.90;;;;;;4912025;29;20214;-78
2021/08/02 10:04:42;;;;;;;0.80;0.10;;;18.10;99.90;;;;;;4910733;29;20039;-77
2021/08/02 10:07:11;;;;;;;1.67;0.20;;;18.10;99.90;;;;;;4912210;29;20037;-77
2021/08/02 10:09:39;;;;;;;2.05;0.30;;;18.10;99.90;;;;;;4911049;29;20041;-77
2021/08/02 10:12:05;;;;;;;2.15;0.45;;;18.20;99.90;;;;;;4912557;29;20092;-77
2021/08/02 10:14:33;;;;;;;0.98;0.20;;;18.30;99.90;;;;;;4910935;29;20033;-77
2021/08/02 10:17:05;;;;;;;2.15;0.20;;;18.20;99.90;;;;;;4924097;29;20048;-77
2021/08/02 10:19:36;;;;;;;1.25;0.40;;;18.20;99.90;;;;;;4929399;29;20036;-77
2021/08/02 10:22:02;;;;;;;2.45;0.30;;;18.30;99.90;;;;;;4913609;29;20416;-77
2021/08/02 10:24:28;;;;;;;1.77;0.20;;;18.30;99.90;;;;;;4929243;29;20092;-76
2021/08/02 10:26:58;;;;;;;2.42;0.22;;;18.70;99.90;;;;;;4913560;29;20036;-77
2021/08/02 10:29:36;;;;;;;2.92;0.20;;;19.10;99.90;;;;;;4913493;29;20083;-78
2021/08/02 10:32:03;;;;;;;0.85;0.20;;;19.50;99.90;;;;;;4930439;29;20551;-77
2021/08/02 10:34:29;;;;;;;1.00;0.20;;;18.90;99.90;;;;;;4930378;29;20043;-77
2021/08/02 10:36:58;;;;;;;1.15;0.20;;;19.10;99.90;;;;;;4921815;29;20036;-78
2021/08/02 10:39:25;;;;;;;1.45;0.20;;;19.50;99.90;;;;;;4894242;29;20498;-77
2021/08/02 10:41:51;;;;;;;1.38;0.20;;;19.40;99.90;;;;;;4911480;29;20462;-77
2021/08/02 10:44:19;;;;;;;0.63;0.20;;;19.50;99.90;;;;;;4911144;29;20032;-77
2021/08/02 10:46:44;;;;;;;1.00;0.30;;;19.50;99.90;;;;;;4911317;29;20029;-77
2021/08/02 10:49:15;;;;;;;0.70;0.10;;;19.90;99.90;;;;;;4893991;29;20420;-77
2021/08/02 10:51:49;;;;;;;0.20;0.10;;;19.80;99.90;;;;;;4909830;29;20029;-77
2021/08/02 10:54:15;;;;;;;1.20;0.30;;;20.20;99.90;;;;;;4894098;29;20072;-77
2021/08/02 10:56:41;;;;;;;1.17;0.20;;;20.30;99.90;;;;;;4909545;29;20045;-77
2021/08/02 10:59:07;;;;;;;1.48;0.17;;;19.90;99.90;;;;;;4910942;29;20048;-77
2021/08/02 11:01:36;;;;;;;0.88;0.20;;;19.60;99.90;;;;;;4894119;29;20036;-77
2021/08/02 11:04:11;;;;;;;2.55;0.30;;;19.70;99.90;;;;;;4893870;29;20033;-77
2021/08/02 11:06:37;;;;;;;1.38;0.20;;;19.40;99.90;;;;;;4909259;29;20141;-77
2021/08/02 11:09:03;;;;;;;2.42;0.20;;;19.30;99.90;;;;;;4893790;29;20040;-77
2021/08/02 11:11:30;;;;;;;1.67;0.20;;;18.80;99.90;;;;;;4910751;29;20040;-77
2021/08/02 11:14:13;;;;;;;1.40;0.20;;;18.60;99.90;;;;;;4909787;29;20033;-77
2021/08/02 11:16:44;;;;;;;3.42;0.15;;;18.80;99.90;;;;;;4921459;29;20039;-77
2021/08/02 11:19:27;;;;;;;2.38;0.40;;;18.80;99.90;;;;;;4929798;29;20418;-77
2021/08/02 11:21:55;;;;;;;2.08;0.30;;;18.60;99.90;;;;;;4930121;29;20103;-77
2021/08/02 11:24:21;;;;;;;2.70;0.20;;;18.40;99.90;;;;;;4929247;29;20032;-77
2021/08/02 11:26:55;;;;;;;2.05;0.28;;;18.50;99.90;;;;;;4929487;29;20035;-77
2021/08/02 11:29:32;;;;;;;4.32;0.30;;;18.60;99.90;;;;;;4927985;29;20042;-77
2021/08/02 11:32:10;;;;;;;1.42;0.30;;;18.80;99.90;;;;;;4927831;29;20028;-77
2021/08/02 11:34:38;;;;;;;8.43;0.20;;;18.50;99.90;;;;;;4928056;29;20062;-76
2021/08/02 11:37:06;;;;;;;3.53;0.20;;;18.80;99.90;;;;;;4919425;29;20036;-77
2021/08/02 11:39:35;;;;;;;2.72;0.32;;;18.60;99.90;;;;;;4893273;29;20047;-77
2021/08/02 11:42:02;;;;;;;1.90;0.30;;;18.60;99.90;;;;;;4893613;29;20059;-77
2021/08/02 11:44:28;;;;;;;2.40;0.20;;;18.80;99.90;;;;;;4893226;29;20060;-77
2021/08/02 11:46:55;;;;;;;1.48;0.20;;;19.10;99.90;;;;;;4910151;29;20029;-77
2021/08/02 11:49:21;;;;;;;0.50;0.10;;;19.20;99.90;;;;;;4909884;29;20489;-78
2021/08/02 11:51:48;;;;;;;4.25;0.40;;;19.50;99.90;;;;;;4893198;29;20040;-77
2021/08/02 11:54:22;;;;;;;1.38;0.20;;;19.60;99.90;;;;;;4893035;29;20039;-77
2021/08/02 11:56:48;;;;;;;0.70;0.20;;;20.10;99.90;;;;;;4893133;29;20044;-77
2021/08/02 11:59:26;;;;;;;1.42;0.20;;;19.70;99.90;;;;;;4877765;29;20064;-78
2021/08/02 12:01:54;;;;;;;2.17;0.22;;;19.40;99.90;;;;;;4901334;29;20108;-78
2021/08/02 12:04:21;;;;;;;1.02;0.20;;;19.30;99.90;;;;;;4892856;29;20037;-79
2021/08/02 12:06:59;;;;;;;0.80;0.20;;;19.30;99.90;;;;;;4892937;29;20048;-80
2021/08/02 12:09:45;;;;;;;1.45;0.20;;;19.20;99.90;;;;;;4892891;29;20024;-77
2021/08/02 12:12:21;;;;;;;1.42;0.20;;;19.40;99.90;;;;;;4892773;29;20461;-77
2021/08/02 12:14:47;;;;;;;1.20;0.20;;;19.70;99.90;;;;;;4908207;29;20044;-77
2021/08/02 12:17:12;;;;;;;0.85;0.20;;;19.80;99.90;;;;;;4907891;29;20507;-77
2021/08/02 12:19:52;;;;;;;1.48;0.20;;;19.40;99.90;;;;;;4928538;29;20024;-77
2021/08/02 12:22:20;;;;;;;2.33;0.20;;;19.70;99.90;;;;;;4928597;29;20032;-77
2021/08/02 12:24:50;;;;;;;2.30;0.17;;;19.70;99.90;;;;;;4927036;29;20040;-77
2021/08/02 12:27:19;;;;;;;;;;;19.80;99.90;;;;;;4928846;29;20039;-77
2021/08/02 12:30:06;;;;;;;2.42;0.20;;;19.90;99.90;;;;;;4911429;29;19955;-78
2021/08/02 12:32:35;;;;;;;1.20;0.20;;;19.80;99.90;;;;;;4928416;29;20055;-78
2021/08/02 12:35:01;;;;;;;1.52;0.10;;;19.80;99.90;;;;;;4926939;29;20035;-77
2021/08/02 12:37:27;;;;;;;0.88;0.10;;;19.90;99.90;;;;;;4898648;29;20059;-77
2021/08/02 12:39:54;;;;;;;1.67;0.20;;;20.00;99.90;;;;;;4892572;29;20127;-77
2021/08/02 12:42:25;;;;;;;1.70;0.20;;;20.00;99.90;;;;;;4909352;29;20036;-77
2021/08/02 12:44:51;;;;;;;1.85;0.20;;;19.60;99.90;;;;;;4892588;29;20044;-77
2021/08/02 12:47:17;;;;;;;1.50;0.20;;;19.40;99.90;;;;;;4892141;29;20148;-77
2021/08/02 12:49:42;;;;;;;2.08;0.13;;;19.40;99.90;;;;;;4892776;29;20040;-77
2021/08/02 12:52:08;;;;;;;1.83;0.20;;;19.20;99.90;;;;;;4892562;29;20028;-77
2021/08/02 12:54:33;;;;;;;2.05;0.10;;;19.20;99.90;;;;;;4892609;29;20485;-77
2021/08/02 12:56:59;;;;;;;2.50;0.20;;;19.30;99.90;;;;;;4892495;29;20047;-77
2021/08/02 12:59:24;;;;;;;1.92;0.20;;;19.30;99.90;;;;;;4909497;29;20171;-78
2021/08/02 13:01:50;;;;;;;0.93;0.20;;;19.20;99.90;;;;;;4909296;29;20075;-77